sensor_id;sensor_type;location;lat;lon;timestamp;pressure;altitude;pressure_sealevel;temperature;humidity
47220;BME280;32961;51.936;4.788;2023-04-23T00:00:35;100697.41;;;8.44;100.00
47220;BME280;32961;51.936;4.788;2023-04-23T00:03:06;100692.25;;;8.41;100.00
47220;BME280;32961;51.936;4.788;2023-04-23T00:05:38;100686.38;;;8.35;100.00
47220;BME280;32961;51.936;4.788;2023-04-23T00:08:09;100690.66;;;8.38;100.00
47220;BME280;32961;51.936;4.788;2023-04-23T00:10:37;100689.81;;;8.38;100.00
47220;BME280;32961;51.936;4.788;2023-04-23T00:13:05;100691.81;;;8.35;100.00
47220;BME280;32961;51.936;4.788;2023-04-23T00:15:34;100684.81;;;8.33;100.00
47220;BME280;32961;51.936;4.788;2023-04-23T00:18:02;100677.38;;;8.25;100.00
47220;BME280;32961;51.936;4.788;2023-04-23T00:20:30;100672.19;;;8.22;100.00
47220;BME280;32961;51.936;4.788;2023-04-23T00:22:59;100678.22;;;8.26;100.00
47220;BME280;32961;51.936;4.788;2023-04-23T00:25:27;100682.78;;;8.25;100.00
47220;BME280;32961;51.936;4.788;2023-04-23T00:27:55;100677.63;;;8.22;100.00
47220;BME280;32961;51.936;4.788;2023-04-23T00:30:23;100675.06;;;8.21;100.00
47220;BME280;32961;51.936;4.788;2023-04-23T00:32:51;100671.47;;;8.20;100.00
47220;BME280;32961;51.936;4.788;2023-04-23T00:35:19;100673.94;;;8.23;100.00
47220;BME280;32961;51.936;4.788;2023-04-23T00:37:47;100667.63;;;8.23;100.00
47220;BME280;32961;51.936;4.788;2023-04-23T00:40:16;100663.94;;;8.24;100.00
47220;BME280;32961;51.936;4.788;2023-04-23T00:42:43;100655.38;;;8.18;100.00
47220;BME280;32961;51.936;4.788;2023-04-23T00:45:11;100651.41;;;8.23;100.00
47220;BME280;32961;51.936;4.788;2023-04-23T00:47:39;100655.97;;;8.22;100.00
47220;BME280;32961;51.936;4.788;2023-04-23T00:50:08;100645.13;;;8.22;100.00
47220;BME280;32961;51.936;4.788;2023-04-23T00:52:36;100643.56;;;8.19;100.00
47220;BME280;32961;51.936;4.788;2023-04-23T00:55:07;100644.28;;;8.22;100.00
47220;BME280;32961;51.936;4.788;2023-04-23T00:57:37;100633.47;;;8.22;100.00
47220;BME280;32961;51.936;4.788;2023-04-23T01:00:06;100625.16;;;8.13;100.00
47220;BME280;32961;51.936;4.788;2023-04-23T01:02:35;100640.84;;;8.19;100.00
47220;BME280;32961;51.936;4.788;2023-04-23T01:05:05;100633.13;;;8.15;100.00
47220;BME280;32961;51.936;4.788;2023-04-23T01:07:34;100636.44;;;8.18;100.00
47220;BME280;32961;51.936;4.788;2023-04-23T01:10:03;100629.28;;;8.17;100.00
47220;BME280;32961;51.936;4.788;2023-04-23T01:12:32;100638.16;;;8.19;100.00
47220;BME280;32961;51.936;4.788;2023-04-23T01:15:02;100623.44;;;8.12;100.00
47220;BME280;32961;51.936;4.788;2023-04-23T01:17:31;100633.47;;;8.22;100.00
47220;BME280;32961;51.936;4.788;2023-04-23T01:20:00;100631.59;;;8.22;100.00
47220;BME280;32961;51.936;4.788;2023-04-23T01:22:29;100629.88;;;8.21;100.00
47220;BME280;32961;51.936;4.788;2023-04-23T01:24:56;100623.47;;;8.22;100.00
47220;BME280;32961;51.936;4.788;2023-04-23T01:27:24;100617.03;;;8.13;100.00
47220;BME280;32961;51.936;4.788;2023-04-23T01:29:52;100619.44;;;8.16;100.00
47220;BME280;32961;51.936;4.788;2023-04-23T01:32:21;100615.75;;;8.17;100.00
47220;BME280;32961;51.936;4.788;2023-04-23T01:34:49;100624.63;;;8.19;100.00
47220;BME280;32961;51.936;4.788;2023-04-23T01:37:20;100619.34;;;8.18;100.00
47220;BME280;32961;51.936;4.788;2023-04-23T01:39:51;100610.09;;;8.21;100.00
47220;BME280;32961;51.936;4.788;2023-04-23T01:42:19;100614.53;;;8.22;100.00
47220;BME280;32961;51.936;4.788;2023-04-23T01:44:48;100610.78;;;8.23;100.00
47220;BME280;32961;51.936;4.788;2023-04-23T01:47:18;100610.78;;;8.23;100.00
47220;BME280;32961;51.936;4.788;2023-04-23T01:49:46;100608.97;;;8.23;100.00
47220;BME280;32961;51.936;4.788;2023-04-23T01:52:14;100605.84;;;8.28;100.00
47220;BME280;32961;51.936;4.788;2023-04-23T01:54:42;100612.97;;;8.29;100.00
47220;BME280;32961;51.936;4.788;2023-04-23T01:57:11;100615.56;;;8.30;100.00
47220;BME280;32961;51.936;4.788;2023-04-23T01:59:39;100595.88;;;8.28;100.00
47220;BME280;32961;51.936;4.788;2023-04-23T02:02:09;100617.28;;;8.31;100.00
47220;BME280;32961;51.936;4.788;2023-04-23T02:04:40;100608.88;;;8.34;100.00
47220;BME280;32961;51.936;4.788;2023-04-23T02:07:11;100607.03;;;8.35;100.00
47220;BME280;32961;51.936;4.788;2023-04-23T02:09:39;100603.19;;;8.38;100.00
47220;BME280;32961;51.936;4.788;2023-04-23T02:12:07;100604.03;;;8.38;100.00
47220;BME280;32961;51.936;4.788;2023-04-23T02:14:36;100609.31;;;8.40;100.00
47220;BME280;32961;51.936;4.788;2023-04-23T02:17:04;100600.34;;;8.39;100.00
47220;BME280;32961;51.936;4.788;2023-04-23T02:19:32;100599.47;;;8.39;100.00
47220;BME280;32961;51.936;4.788;2023-04-23T02:22:01;100599.34;;;8.40;100.00
47220;BME280;32961;51.936;4.788;2023-04-23T02:24:29;100594.78;;;8.41;100.00
47220;BME280;32961;51.936;4.788;2023-04-23T02:26:56;100592.94;;;8.41;100.00
47220;BME280;32961;51.936;4.788;2023-04-23T02:29:24;100596.50;;;8.42;100.00
47220;BME280;32961;51.936;4.788;2023-04-23T02:31:53;100590.25;;;8.41;100.00
47220;BME280;32961;51.936;4.788;2023-04-23T02:34:21;100593.94;;;8.40;100.00
47220;BME280;32961;51.936;4.788;2023-04-23T02:36:49;100584.09;;;8.39;100.00
47220;BME280;32961;51.936;4.788;2023-04-23T02:39:18;100581.38;;;8.39;100.00
47220;BME280;32961;51.936;4.788;2023-04-23T02:41:46;100582.13;;;8.41;100.00
47220;BME280;32961;51.936;4.788;2023-04-23T02:44:14;100588.63;;;8.39;100.00
47220;BME280;32961;51.936;4.788;2023-04-23T02:46:42;100582.53;;;8.37;100.00
47220;BME280;32961;51.936;4.788;2023-04-23T02:49:11;100582.09;;;8.31;100.00
47220;BME280;32961;51.936;4.788;2023-04-23T02:51:40;100587.78;;;8.38;100.00
47220;BME280;32961;51.936;4.788;2023-04-23T02:54:07;100592.38;;;8.38;100.00
47220;BME280;32961;51.936;4.788;2023-04-23T02:56:36;100595.91;;;8.38;100.00
47220;BME280;32961;51.936;4.788;2023-04-23T02:59:04;100589.66;;;8.38;100.00
47220;BME280;32961;51.936;4.788;2023-04-23T03:01:32;100588.63;;;8.39;100.00
47220;BME280;32961;51.936;4.788;2023-04-23T03:04:00;100584.34;;;8.36;100.00
47220;BME280;32961;51.936;4.788;2023-04-23T03:06:30;100585.09;;;8.38;100.00
47220;BME280;32961;51.936;4.788;2023-04-23T03:09:00;100583.38;;;8.37;100.00
47220;BME280;32961;51.936;4.788;2023-04-23T03:11:28;100575.06;;;8.29;100.00
47220;BME280;32961;51.936;4.788;2023-04-23T03:13:55;100587.06;;;8.36;100.00
47220;BME280;32961;51.936;4.788;2023-04-23T03:16:23;100584.25;;;8.38;100.00
47220;BME280;32961;51.936;4.788;2023-04-23T03:18:52;100583.38;;;8.37;100.00
47220;BME280;32961;51.936;4.788;2023-04-23T03:21:20;100584.25;;;8.38;100.00
47220;BME280;32961;51.936;4.788;2023-04-23T03:23:49;100578.81;;;8.38;100.00
47220;BME280;32961;51.936;4.788;2023-04-23T03:26:17;100581.38;;;8.39;100.00
47220;BME280;32961;51.936;4.788;2023-04-23T03:28:44;100579.81;;;8.37;100.00
47220;BME280;32961;51.936;4.788;2023-04-23T03:31:12;100580.66;;;8.37;100.00
47220;BME280;32961;51.936;4.788;2023-04-23T03:33:40;100574.53;;;8.35;100.00
47220;BME280;32961;51.936;4.788;2023-04-23T03:36:08;100566.53;;;8.33;100.00
47220;BME280;32961;51.936;4.788;2023-04-23T03:38:36;100558.13;;;8.27;100.00
47220;BME280;32961;51.936;4.788;2023-04-23T03:41:05;100562.25;;;8.31;100.00
47220;BME280;32961;51.936;4.788;2023-04-23T03:43:33;100559.56;;;8.31;100.00
47220;BME280;32961;51.936;4.788;2023-04-23T03:46:01;100562.53;;;8.28;100.00
47220;BME280;32961;51.936;4.788;2023-04-23T03:48:29;100565.94;;;8.30;100.00
47220;BME280;32961;51.936;4.788;2023-04-23T03:50:57;100563.38;;;8.28;100.00
47220;BME280;32961;51.936;4.788;2023-04-23T03:53:25;100581.50;;;8.28;100.00
47220;BME280;32961;51.936;4.788;2023-04-23T03:55:53;100571.66;;;8.27;100.00
47220;BME280;32961;51.936;4.788;2023-04-23T03:58:22;100573.63;;;8.25;100.00
47220;BME280;32961;51.936;4.788;2023-04-23T04:00:50;100570.19;;;8.23;100.00
47220;BME280;32961;51.936;4.788;2023-04-23T04:03:18;100564.34;;;8.17;100.00
47220;BME280;32961;51.936;4.788;2023-04-23T04:05:47;100573.19;;;8.19;100.00
47220;BME280;32961;51.936;4.788;2023-04-23T04:08:15;100563.75;;;8.14;100.00
47220;BME280;32961;51.936;4.788;2023-04-23T04:10:43;100548.94;;;8.08;100.00
47220;BME280;32961;51.936;4.788;2023-04-23T04:13:10;100568.91;;;8.17;100.00
47220;BME280;32961;51.936;4.788;2023-04-23T04:15:40;100576.28;;;8.15;100.00
47220;BME280;32961;51.936;4.788;2023-04-23T04:18:07;100560.41;;;8.00;100.00
47220;BME280;32961;51.936;4.788;2023-04-23T04:20:36;100572.00;;;8.12;100.00
47220;BME280;32961;51.936;4.788;2023-04-23T04:23:03;100573.72;;;8.13;100.00
47220;BME280;32961;51.936;4.788;2023-04-23T04:25:31;100565.16;;;8.08;100.00
47220;BME280;32961;51.936;4.788;2023-04-23T04:27:59;100576.69;;;8.10;100.00
47220;BME280;32961;51.936;4.788;2023-04-23T04:30:27;100570.44;;;8.10;100.00
47220;BME280;32961;51.936;4.788;2023-04-23T04:32:56;100571.56;;;8.07;100.00
47220;BME280;32961;51.936;4.788;2023-04-23T04:35:25;100567.28;;;8.05;100.00
47220;BME280;32961;51.936;4.788;2023-04-23T04:37:53;100569.13;;;8.04;100.00
47220;BME280;32961;51.936;4.788;2023-04-23T04:40:21;100570.97;;;8.03;100.00
47220;BME280;32961;51.936;4.788;2023-04-23T04:42:49;100576.38;;;8.03;100.00
47220;BME280;32961;51.936;4.788;2023-04-23T04:45:18;100567.81;;;7.98;100.00
47220;BME280;32961;51.936;4.788;2023-04-23T04:47:46;100571.22;;;8.00;100.00
47220;BME280;32961;51.936;4.788;2023-04-23T04:50:15;100570.25;;;8.01;100.00
47220;BME280;32961;51.936;4.788;2023-04-23T04:52:43;100570.38;;;8.00;100.00
47220;BME280;32961;51.936;4.788;2023-04-23T04:55:11;100553.22;;;7.90;100.00
47220;BME280;32961;51.936;4.788;2023-04-23T04:57:39;100563.53;;;7.96;100.00
47220;BME280;32961;51.936;4.788;2023-04-23T05:00:21;100570.06;;;7.93;100.00
47220;BME280;32961;51.936;4.788;2023-04-23T05:02:49;100574.47;;;7.94;100.00
47220;BME280;32961;51.936;4.788;2023-04-23T05:05:20;100562.38;;;7.89;100.00
47220;BME280;32961;51.936;4.788;2023-04-23T05:07:49;100574.94;;;7.99;100.00
47220;BME280;32961;51.936;4.788;2023-04-23T05:10:17;100573.09;;;8.00;100.00
47220;BME280;32961;51.936;4.788;2023-04-23T05:12:45;100566.69;;;8.01;100.00
47220;BME280;32961;51.936;4.788;2023-04-23T05:15:13;100575.25;;;8.06;100.00
47220;BME280;32961;51.936;4.788;2023-04-23T05:17:42;100573.28;;;8.08;100.00
47220;BME280;32961;51.936;4.788;2023-04-23T05:20:10;100575.31;;;8.16;100.00
47220;BME280;32961;51.936;4.788;2023-04-23T05:22:40;100568.31;;;8.13;100.00
47220;BME280;32961;51.936;4.788;2023-04-23T05:25:09;100570.34;;;8.21;100.00
47220;BME280;32961;51.936;4.788;2023-04-23T05:27:38;100562.22;;;8.21;100.00
47220;BME280;32961;51.936;4.788;2023-04-23T05:30:08;100560.09;;;8.25;100.00
47220;BME280;32961;51.936;4.788;2023-04-23T05:32:36;100564.97;;;8.31;100.00
47220;BME280;32961;51.936;4.788;2023-04-23T05:35:05;100562.13;;;8.32;100.00
47220;BME280;32961;51.936;4.788;2023-04-23T05:37:33;100565.41;;;8.36;100.00
47220;BME280;32961;51.936;4.788;2023-04-23T05:40:03;100564.16;;;8.40;100.00
47220;BME280;32961;51.936;4.788;2023-04-23T05:42:33;100563.88;;;8.43;100.00
47220;BME280;32961;51.936;4.788;2023-04-23T05:45:01;100567.31;;;8.45;100.00
47220;BME280;32961;51.936;4.788;2023-04-23T05:47:33;100565.94;;;8.51;100.00
47220;BME280;32961;51.936;4.788;2023-04-23T05:50:01;100567.50;;;8.54;100.00
47220;BME280;32961;51.936;4.788;2023-04-23T05:52:29;100573.38;;;8.59;100.00
47220;BME280;32961;51.936;4.788;2023-04-23T05:54:58;100566.66;;;8.63;100.00
47220;BME280;32961;51.936;4.788;2023-04-23T05:57:28;100557.53;;;8.64;100.00
47220;BME280;32961;51.936;4.788;2023-04-23T05:59:55;100557.72;;;8.72;100.00
47220;BME280;32961;51.936;4.788;2023-04-23T06:02:23;100561.69;;;8.78;100.00
47220;BME280;32961;51.936;4.788;2023-04-23T06:04:51;100556.75;;;8.83;100.00
47220;BME280;32961;51.936;4.788;2023-04-23T06:07:19;100551.03;;;8.86;100.00
47220;BME280;32961;51.936;4.788;2023-04-23T06:09:47;100561.88;;;8.96;100.00
47220;BME280;32961;51.936;4.788;2023-04-23T06:12:15;100560.31;;;9.03;100.00
47220;BME280;32961;51.936;4.788;2023-04-23T06:14:44;100553.59;;;9.07;100.00
47220;BME280;32961;51.936;4.788;2023-04-23T06:17:13;100559.91;;;9.18;100.00
47220;BME280;32961;51.936;4.788;2023-04-23T06:19:40;100550.78;;;9.28;100.00
47220;BME280;32961;51.936;4.788;2023-04-23T06:22:08;100552.59;;;9.38;100.00
47220;BME280;32961;51.936;4.788;2023-04-23T06:24:36;100550.03;;;9.46;100.00
47220;BME280;32961;51.936;4.788;2023-04-23T06:27:04;100546.47;;;9.55;100.00
47220;BME280;32961;51.936;4.788;2023-04-23T06:29:32;100542.59;;;9.68;100.00
47220;BME280;32961;51.936;4.788;2023-04-23T06:32:02;100546.28;;;9.76;100.00
47220;BME280;32961;51.936;4.788;2023-04-23T06:34:30;100543.38;;;9.88;100.00
47220;BME280;32961;51.936;4.788;2023-04-23T06:36:58;100530.66;;;9.98;100.00
47220;BME280;32961;51.936;4.788;2023-04-23T06:39:26;100518.66;;;10.01;100.00
47220;BME280;32961;51.936;4.788;2023-04-23T06:41:54;100535.13;;;10.17;100.00
47220;BME280;32961;51.936;4.788;2023-04-23T06:44:23;100535.97;;;10.27;100.00
47220;BME280;32961;51.936;4.788;2023-04-23T06:46:51;100536.78;;;10.38;100.00
47220;BME280;32961;51.936;4.788;2023-04-23T06:49:20;100537.59;;;10.48;100.00
47220;BME280;32961;51.936;4.788;2023-04-23T06:51:50;100530.53;;;10.55;100.00
47220;BME280;32961;51.936;4.788;2023-04-23T06:54:18;100532.91;;;10.68;100.00
47220;BME280;32961;51.936;4.788;2023-04-23T06:56:45;100540.53;;;10.83;100.00
47220;BME280;32961;51.936;4.788;2023-04-23T06:59:15;100533.88;;;10.95;100.00
47220;BME280;32961;51.936;4.788;2023-04-23T07:01:43;100532.25;;;11.02;100.00
47220;BME280;32961;51.936;4.788;2023-04-23T07:04:10;100526.72;;;11.12;100.00
47220;BME280;32961;51.936;4.788;2023-04-23T07:06:40;100520.88;;;11.25;100.00
47220;BME280;32961;51.936;4.788;2023-04-23T07:09:08;100522.34;;;11.37;100.00
47220;BME280;32961;51.936;4.788;2023-04-23T07:11:35;100518.06;;;11.53;100.00
47220;BME280;32961;51.936;4.788;2023-04-23T07:14:03;100520.66;;;11.63;100.00
47220;BME280;32961;51.936;4.788;2023-04-23T07:16:31;100521.25;;;11.75;100.00
47220;BME280;32961;51.936;4.788;2023-04-23T07:19:02;100519.28;;;11.85;100.00
47220;BME280;32961;51.936;4.788;2023-04-23T07:21:29;100524.31;;;11.98;100.00
47220;BME280;32961;51.936;4.788;2023-04-23T07:24:00;100509.91;;;12.06;100.00
47220;BME280;32961;51.936;4.788;2023-04-23T07:26:32;100503.81;;;12.12;100.00
47220;BME280;32961;51.936;4.788;2023-04-23T07:29:00;100514.28;;;12.33;100.00
47220;BME280;32961;51.936;4.788;2023-04-23T07:31:28;100507.69;;;12.44;100.00
47220;BME280;32961;51.936;4.788;2023-04-23T07:33:58;100499.38;;;12.54;100.00
47220;BME280;32961;51.936;4.788;2023-04-23T07:36:26;100502.97;;;12.62;100.00
47220;BME280;32961;51.936;4.788;2023-04-23T07:38:54;100498.19;;;12.73;99.55
47220;BME280;32961;51.936;4.788;2023-04-23T07:41:24;100503.84;;;12.79;98.85
47220;BME280;32961;51.936;4.788;2023-04-23T07:43:51;100508.81;;;12.92;98.58
47220;BME280;32961;51.936;4.788;2023-04-23T07:46:19;100502.16;;;13.03;97.99
47220;BME280;32961;51.936;4.788;2023-04-23T07:48:47;100495.03;;;13.10;96.37
47220;BME280;32961;51.936;4.788;2023-04-23T07:51:15;100495.22;;;13.17;96.18
47220;BME280;32961;51.936;4.788;2023-04-23T07:53:43;100502.34;;;13.26;95.24
47220;BME280;32961;51.936;4.788;2023-04-23T07:56:12;100504.91;;;13.36;94.31
47220;BME280;32961;51.936;4.788;2023-04-23T07:58:42;100500.69;;;13.42;93.58
47220;BME280;32961;51.936;4.788;2023-04-23T08:01:10;100497.78;;;13.52;93.16
47220;BME280;32961;51.936;4.788;2023-04-23T08:03:37;100494.50;;;13.64;92.55
47220;BME280;32961;51.936;4.788;2023-04-23T08:06:06;100497.91;;;13.75;92.57
47220;BME280;32961;51.936;4.788;2023-04-23T08:08:33;100492.44;;;13.83;90.96
47220;BME280;32961;51.936;4.788;2023-04-23T08:11:01;100484.19;;;13.91;90.23
47220;BME280;32961;51.936;4.788;2023-04-23T08:13:29;100487.25;;;13.96;89.67
47220;BME280;32961;51.936;4.788;2023-04-23T08:15:58;100492.69;;;14.05;89.17
47220;BME280;32961;51.936;4.788;2023-04-23T08:18:26;100485.16;;;14.15;88.42
47220;BME280;32961;51.936;4.788;2023-04-23T08:20:54;100478.13;;;14.21;88.09
47220;BME280;32961;51.936;4.788;2023-04-23T08:23:23;100484.41;;;14.29;88.42
47220;BME280;32961;51.936;4.788;2023-04-23T08:25:51;100481.44;;;14.39;87.21
47220;BME280;32961;51.936;4.788;2023-04-23T08:28:18;100483.47;;;14.45;86.55
47220;BME280;32961;51.936;4.788;2023-04-23T08:30:46;100494.19;;;14.55;85.84
47220;BME280;32961;51.936;4.788;2023-04-23T08:33:16;100477.06;;;14.61;85.92
47220;BME280;32961;51.936;4.788;2023-04-23T08:35:44;100484.03;;;14.72;86.85
47220;BME280;32961;51.936;4.788;2023-04-23T08:38:11;100491.66;;;14.85;86.17
47220;BME280;32961;51.936;4.788;2023-04-23T08:40:41;100487.50;;;14.89;83.69
47220;BME280;32961;51.936;4.788;2023-04-23T08:43:14;100478.97;;;14.92;83.16
47220;BME280;32961;51.936;4.788;2023-04-23T08:45:44;100475.69;;;14.97;83.58
47220;BME280;32961;51.936;4.788;2023-04-23T08:48:13;100480.91;;;15.07;83.45
47220;BME280;32961;51.936;4.788;2023-04-23T08:50:43;100488.53;;;15.12;82.58
47220;BME280;32961;51.936;4.788;2023-04-23T08:53:16;100482.66;;;15.23;82.63
47220;BME280;32961;51.936;4.788;2023-04-23T08:55:44;100484.47;;;15.31;81.80
47220;BME280;32961;51.936;4.788;2023-04-23T08:58:14;100488.81;;;15.40;80.88
47220;BME280;32961;51.936;4.788;2023-04-23T09:00:42;100483.94;;;15.50;80.85
47220;BME280;32961;51.936;4.788;2023-04-23T09:03:13;100485.94;;;15.56;80.28
47220;BME280;32961;51.936;4.788;2023-04-23T09:05:44;100486.78;;;15.57;78.99
47220;BME280;32961;51.936;4.788;2023-04-23T09:08:11;100482.94;;;15.66;78.88
47220;BME280;32961;51.936;4.788;2023-04-23T09:10:40;100484.94;;;15.72;78.59
47220;BME280;32961;51.936;4.788;2023-04-23T09:13:11;100488.25;;;15.83;78.90
47220;BME280;32961;51.936;4.788;2023-04-23T09:16:20;100475.75;;;15.80;77.44
47220;BME280;32961;51.936;4.788;2023-04-23T09:18:58;100480.91;;;15.83;75.88
47220;BME280;32961;51.936;4.788;2023-04-23T09:21:27;100473.22;;;15.79;76.83
47220;BME280;32961;51.936;4.788;2023-04-23T09:24:00;100476.53;;;15.89;76.40
47220;BME280;32961;51.936;4.788;2023-04-23T09:26:31;100464.75;;;15.88;75.78
47220;BME280;32961;51.936;4.788;2023-04-23T09:28:58;100467.88;;;16.00;75.25
47220;BME280;32961;51.936;4.788;2023-04-23T09:31:26;100468.06;;;16.14;75.58
47220;BME280;32961;51.936;4.788;2023-04-23T09:33:54;100453.13;;;16.16;72.66
47220;BME280;32961;51.936;4.788;2023-04-23T09:36:22;100457.63;;;16.24;73.65
47220;BME280;32961;51.936;4.788;2023-04-23T09:38:55;100464.06;;;16.31;73.17
47220;BME280;32961;51.936;4.788;2023-04-23T09:41:24;100465.28;;;16.29;71.23
47220;BME280;32961;51.936;4.788;2023-04-23T09:43:52;100463.03;;;16.32;72.50
47220;BME280;32961;51.936;4.788;2023-04-23T09:46:37;100462.06;;;16.40;71.57
47220;BME280;32961;51.936;4.788;2023-04-23T09:49:06;100459.22;;;16.48;72.14
47220;BME280;32961;51.936;4.788;2023-04-23T09:51:37;100451.72;;;16.57;71.34
47220;BME280;32961;51.936;4.788;2023-04-23T09:54:15;100447.53;;;16.61;70.89
47220;BME280;32961;51.936;4.788;2023-04-23T09:56:48;100442.50;;;16.65;69.92
47220;BME280;32961;51.936;4.788;2023-04-23T09:59:21;100447.81;;;16.66;69.48
47220;BME280;32961;51.936;4.788;2023-04-23T10:02:09;100442.38;;;16.73;68.81
47220;BME280;32961;51.936;4.788;2023-04-23T10:04:38;100444.09;;;16.74;68.00
47220;BME280;32961;51.936;4.788;2023-04-23T10:07:07;100440.94;;;16.77;68.19
47220;BME280;32961;51.936;4.788;2023-04-23T10:09:43;100438.41;;;16.76;68.55
47220;BME280;32961;51.936;4.788;2023-04-23T10:12:12;100440.63;;;16.87;68.72
47220;BME280;32961;51.936;4.788;2023-04-23T10:14:44;100433.53;;;16.93;68.20
47220;BME280;32961;51.936;4.788;2023-04-23T10:17:15;100431.50;;;17.02;67.88
47220;BME280;32961;51.936;4.788;2023-04-23T10:19:43;100433.53;;;17.14;67.14
47220;BME280;32961;51.936;4.788;2023-04-23T10:22:14;100436.13;;;17.23;66.44
47220;BME280;32961;51.936;4.788;2023-04-23T10:24:51;100425.06;;;17.38;66.57
47220;BME280;32961;51.936;4.788;2023-04-23T10:27:25;100431.69;;;17.50;65.39
47220;BME280;32961;51.936;4.788;2023-04-23T10:30:14;100425.63;;;17.61;64.82
47220;BME280;32961;51.936;4.788;2023-04-23T10:32:43;100418.88;;;17.64;65.27
47220;BME280;32961;51.936;4.788;2023-04-23T10:35:11;100421.44;;;17.65;63.84
47220;BME280;32961;51.936;4.788;2023-04-23T10:37:39;100407.06;;;17.63;63.44
47220;BME280;32961;51.936;4.788;2023-04-23T10:40:12;100401.28;;;17.52;63.19
47220;BME280;32961;51.936;4.788;2023-04-23T10:42:42;100405.31;;;17.56;62.06
47220;BME280;32961;51.936;4.788;2023-04-23T10:45:14;100406.38;;;17.55;62.84
47220;BME280;32961;51.936;4.788;2023-04-23T10:47:52;100405.13;;;17.57;61.75
47220;BME280;32961;51.936;4.788;2023-04-23T10:50:22;100389.94;;;17.61;61.59
47220;BME280;32961;51.936;4.788;2023-04-23T10:52:50;100385.91;;;17.64;60.88
47220;BME280;32961;51.936;4.788;2023-04-23T10:55:22;100385.03;;;17.57;59.58
47220;BME280;32961;51.936;4.788;2023-04-23T10:57:58;100381.25;;;17.58;60.68
47220;BME280;32961;51.936;4.788;2023-04-23T11:00:30;100383.78;;;17.59;60.51
47220;BME280;32961;51.936;4.788;2023-04-23T11:03:28;100374.66;;;17.52;59.02
47220;BME280;32961;51.936;4.788;2023-04-23T11:06:00;100375.53;;;17.59;60.31
47220;BME280;32961;51.936;4.788;2023-04-23T11:08:28;100365.66;;;17.65;60.57
47220;BME280;32961;51.936;4.788;2023-04-23T11:11:00;100365.03;;;17.70;60.80
47220;BME280;32961;51.936;4.788;2023-04-23T11:13:28;100364.84;;;17.71;60.58
47220;BME280;32961;51.936;4.788;2023-04-23T11:16:13;100359.31;;;17.64;60.07
47220;BME280;32961;51.936;4.788;2023-04-23T11:18:55;100350.81;;;17.59;60.04
47220;BME280;32961;51.936;4.788;2023-04-23T11:24:26;100340.13;;;17.36;59.56
47220;BME280;32961;51.936;4.788;2023-04-23T11:26:56;100343.50;;;17.38;60.33
47220;BME280;32961;51.936;4.788;2023-04-23T11:29:26;100339.88;;;17.31;59.88
47220;BME280;32961;51.936;4.788;2023-04-23T11:31:55;100332.50;;;17.31;59.07
47220;BME280;32961;51.936;4.788;2023-04-23T11:34:29;100323.19;;;17.32;59.66
47220;BME280;32961;51.936;4.788;2023-04-23T11:36:58;100328.31;;;17.42;59.45
47220;BME280;32961;51.936;4.788;2023-04-23T11:39:26;100321.84;;;17.50;58.82
47220;BME280;32961;51.936;4.788;2023-04-23T11:41:55;100317.00;;;17.59;59.16
47220;BME280;32961;51.936;4.788;2023-04-23T11:44:24;100307.34;;;17.70;59.51
47220;BME280;32961;51.936;4.788;2023-04-23T11:46:52;100308.25;;;17.84;57.87
47220;BME280;32961;51.936;4.788;2023-04-23T11:49:23;100302.19;;;17.95;57.88
47220;BME280;32961;51.936;4.788;2023-04-23T11:51:51;100296.72;;;18.08;57.58
47220;BME280;32961;51.936;4.788;2023-04-23T11:54:24;100291.88;;;18.17;56.46
47220;BME280;32961;51.936;4.788;2023-04-23T11:56:53;100292.34;;;18.27;56.60
47220;BME280;32961;51.936;4.788;2023-04-23T11:59:24;100275.22;;;18.32;57.00
47220;BME280;32961;51.936;4.788;2023-04-23T12:01:54;100265.25;;;18.31;55.46
47220;BME280;32961;51.936;4.788;2023-04-23T12:04:23;100284.97;;;18.48;54.83
47220;BME280;32961;51.936;4.788;2023-04-23T12:06:53;100282.84;;;18.57;54.97
47220;BME280;32961;51.936;4.788;2023-04-23T12:09:22;100290.03;;;18.65;54.20
47220;BME280;32961;51.936;4.788;2023-04-23T12:11:50;100276.47;;;18.70;53.77
47220;BME280;32961;51.936;4.788;2023-04-23T12:14:23;100270.78;;;18.71;54.06
47220;BME280;32961;51.936;4.788;2023-04-23T12:16:55;100261.66;;;18.71;53.23
47220;BME280;32961;51.936;4.788;2023-04-23T12:19:26;100261.06;;;18.69;53.33
47220;BME280;32961;51.936;4.788;2023-04-23T12:21:56;100252.56;;;18.64;53.34
47220;BME280;32961;51.936;4.788;2023-04-23T12:24:25;100257.44;;;18.55;54.06
47220;BME280;32961;51.936;4.788;2023-04-23T12:26:55;100251.09;;;18.54;54.85
47220;BME280;32961;51.936;4.788;2023-04-23T12:29:24;100253.84;;;18.54;54.80
47220;BME280;32961;51.936;4.788;2023-04-23T12:31:56;100248.75;;;18.51;55.26
47220;BME280;32961;51.936;4.788;2023-04-23T12:34:25;100248.56;;;18.46;53.95
47220;BME280;32961;51.936;4.788;2023-04-23T12:36:55;100239.47;;;18.32;53.67
47220;BME280;32961;51.936;4.788;2023-04-23T12:39:27;100234.56;;;18.21;54.33
47220;BME280;32961;51.936;4.788;2023-04-23T12:41:57;100234.78;;;18.12;54.10
47220;BME280;32961;51.936;4.788;2023-04-23T12:44:27;100245.50;;;17.94;55.26
47220;BME280;32961;51.936;4.788;2023-04-23T12:46:57;100260.88;;;17.81;60.53
47220;BME280;32961;51.936;4.788;2023-04-23T12:49:28;100235.59;;;17.44;63.63
47220;BME280;32961;51.936;4.788;2023-04-23T12:51:57;100251.84;;;17.39;65.17
47220;BME280;32961;51.936;4.788;2023-04-23T12:54:28;100247.09;;;17.20;66.06
47220;BME280;32961;51.936;4.788;2023-04-23T12:56:57;100241.78;;;17.11;67.13
47220;BME280;32961;51.936;4.788;2023-04-23T12:59:25;100235.22;;;17.06;68.45
47220;BME280;32961;51.936;4.788;2023-04-23T13:01:53;100241.75;;;17.05;68.98
47220;BME280;32961;51.936;4.788;2023-04-23T13:04:21;100241.09;;;17.03;69.59